sensor_id;sensor_type;location;lat;lon;timestamp;P1;durP1;ratioP1;P2;durP2;ratioP2
77978;SDS011;67169;50.268;8.694;2023-07-29T00:00:05;8.77;;;6.30;;
77978;SDS011;67169;50.268;8.694;2023-07-29T00:02:32;7.88;;;5.95;;
77978;SDS011;67169;50.268;8.694;2023-07-29T00:04:59;12.30;;;7.07;;
77978;SDS011;67169;50.268;8.694;2023-07-29T00:07:25;8.82;;;6.07;;
77978;SDS011;67169;50.268;8.694;2023-07-29T00:09:52;9.98;;;7.15;;
77978;SDS011;67169;50.268;8.694;2023-07-29T00:12:19;12.25;;;7.25;;
77978;SDS011;67169;50.268;8.694;2023-07-29T00:14:45;10.65;;;6.80;;
77978;SDS011;67169;50.268;8.694;2023-07-29T00:17:13;10.30;;;7.20;;
77978;SDS011;67169;50.268;8.694;2023-07-29T00:19:40;11.75;;;8.60;;
77978;SDS011;67169;50.268;8.694;2023-07-29T00:22:06;13.60;;;8.35;;
77978;SDS011;67169;50.268;8.694;2023-07-29T00:24:33;12.88;;;8.23;;
77978;SDS011;67169;50.268;8.694;2023-07-29T00:27:00;13.55;;;9.10;;
77978;SDS011;67169;50.268;8.694;2023-07-29T00:29:26;9.98;;;7.53;;
77978;SDS011;67169;50.268;8.694;2023-07-29T00:31:53;12.65;;;8.60;;
77978;SDS011;67169;50.268;8.694;2023-07-29T00:34:21;10.57;;;8.23;;
77978;SDS011;67169;50.268;8.694;2023-07-29T00:36:47;11.00;;;8.02;;
77978;SDS011;67169;50.268;8.694;2023-07-29T00:39:14;13.25;;;8.93;;
77978;SDS011;67169;50.268;8.694;2023-07-29T00:41:41;14.43;;;9.95;;
77978;SDS011;67169;50.268;8.694;2023-07-29T00:44:07;14.05;;;9.07;;
77978;SDS011;67169;50.268;8.694;2023-07-29T00:46:34;14.88;;;9.95;;
77978;SDS011;67169;50.268;8.694;2023-07-29T00:49:02;13.40;;;9.40;;
77978;SDS011;67169;50.268;8.694;2023-07-29T00:51:30;13.70;;;10.18;;
77978;SDS011;67169;50.268;8.694;2023-07-29T00:53:56;15.70;;;10.73;;
77978;SDS011;67169;50.268;8.694;2023-07-29T00:56:23;16.08;;;11.38;;
77978;SDS011;67169;50.268;8.694;2023-07-29T00:58:50;15.45;;;9.98;;
77978;SDS011;67169;50.268;8.694;2023-07-29T01:01:23;20.48;;;11.80;;
77978;SDS011;67169;50.268;8.694;2023-07-29T01:03:50;15.13;;;10.35;;
77978;SDS011;67169;50.268;8.694;2023-07-29T01:06:17;19.80;;;12.77;;
77978;SDS011;67169;50.268;8.694;2023-07-29T01:08:52;19.50;;;12.18;;
77978;SDS011;67169;50.268;8.694;2023-07-29T01:11:29;20.48;;;14.68;;
77978;SDS011;67169;50.268;8.694;2023-07-29T01:14:05;18.58;;;11.77;;
77978;SDS011;67169;50.268;8.694;2023-07-29T01:16:55;19.88;;;13.35;;
77978;SDS011;67169;50.268;8.694;2023-07-29T01:19:34;20.42;;;13.90;;
77978;SDS011;67169;50.268;8.694;2023-07-29T01:22:09;22.10;;;13.77;;
77978;SDS011;67169;50.268;8.694;2023-07-29T01:27:05;21.73;;;12.98;;
77978;SDS011;67169;50.268;8.694;2023-07-29T01:29:31;20.17;;;13.05;;
77978;SDS011;67169;50.268;8.694;2023-07-29T01:31:59;19.40;;;12.05;;
77978;SDS011;67169;50.268;8.694;2023-07-29T01:34:32;23.83;;;14.48;;
77978;SDS011;67169;50.268;8.694;2023-07-29T01:37:05;21.20;;;12.68;;
77978;SDS011;67169;50.268;8.694;2023-07-29T01:39:35;19.50;;;13.43;;
77978;SDS011;67169;50.268;8.694;2023-07-29T01:42:05;21.67;;;13.38;;
77978;SDS011;67169;50.268;8.694;2023-07-29T01:44:33;19.42;;;12.82;;
77978;SDS011;67169;50.268;8.694;2023-07-29T01:47:01;19.67;;;13.60;;
77978;SDS011;67169;50.268;8.694;2023-07-29T01:49:28;21.08;;;14.02;;
77978;SDS011;67169;50.268;8.694;2023-07-29T01:51:55;16.42;;;11.07;;
77978;SDS011;67169;50.268;8.694;2023-07-29T01:54:21;21.25;;;13.32;;
77978;SDS011;67169;50.268;8.694;2023-07-29T01:56:49;21.60;;;12.00;;
77978;SDS011;67169;50.268;8.694;2023-07-29T01:59:17;20.88;;;12.98;;
77978;SDS011;67169;50.268;8.694;2023-07-29T02:01:43;17.45;;;11.85;;
77978;SDS011;67169;50.268;8.694;2023-07-29T02:04:11;18.73;;;12.43;;
77978;SDS011;67169;50.268;8.694;2023-07-29T02:06:38;19.13;;;11.50;;
77978;SDS011;67169;50.268;8.694;2023-07-29T02:09:04;18.60;;;12.93;;
77978;SDS011;67169;50.268;8.694;2023-07-29T02:11:31;19.27;;;12.55;;
77978;SDS011;67169;50.268;8.694;2023-07-29T02:13:59;18.45;;;12.75;;
77978;SDS011;67169;50.268;8.694;2023-07-29T02:16:26;19.40;;;12.48;;
77978;SDS011;67169;50.268;8.694;2023-07-29T02:18:52;21.48;;;12.68;;
77978;SDS011;67169;50.268;8.694;2023-07-29T02:21:19;19.05;;;12.13;;
77978;SDS011;67169;50.268;8.694;2023-07-29T02:23:45;18.58;;;11.82;;
77978;SDS011;67169;50.268;8.694;2023-07-29T02:26:12;20.75;;;12.18;;
77978;SDS011;67169;50.268;8.694;2023-07-29T02:28:38;21.02;;;13.13;;
77978;SDS011;67169;50.268;8.694;2023-07-29T02:31:16;20.88;;;12.93;;
77978;SDS011;67169;50.268;8.694;2023-07-29T02:33:43;22.20;;;14.20;;
77978;SDS011;67169;50.268;8.694;2023-07-29T02:36:10;20.52;;;12.02;;
77978;SDS011;67169;50.268;8.694;2023-07-29T02:38:38;21.20;;;12.95;;
77978;SDS011;67169;50.268;8.694;2023-07-29T02:41:04;23.00;;;13.95;;
77978;SDS011;67169;50.268;8.694;2023-07-29T02:43:31;22.15;;;14.23;;
77978;SDS011;67169;50.268;8.694;2023-07-29T02:45:58;20.85;;;13.77;;
77978;SDS011;67169;50.268;8.694;2023-07-29T02:48:26;19.48;;;12.57;;
77978;SDS011;67169;50.268;8.694;2023-07-29T02:50:53;23.27;;;13.57;;
77978;SDS011;67169;50.268;8.694;2023-07-29T02:53:20;21.48;;;14.02;;
77978;SDS011;67169;50.268;8.694;2023-07-29T02:55:48;20.45;;;13.30;;
77978;SDS011;67169;50.268;8.694;2023-07-29T02:58:15;19.63;;;12.65;;
77978;SDS011;67169;50.268;8.694;2023-07-29T03:00:41;24.70;;;13.60;;
77978;SDS011;67169;50.268;8.694;2023-07-29T03:03:08;20.42;;;12.55;;
77978;SDS011;67169;50.268;8.694;2023-07-29T03:05:36;19.20;;;13.20;;
77978;SDS011;67169;50.268;8.694;2023-07-29T03:08:03;23.85;;;12.48;;
77978;SDS011;67169;50.268;8.694;2023-07-29T03:10:30;23.20;;;13.50;;
77978;SDS011;67169;50.268;8.694;2023-07-29T03:12:56;20.98;;;12.38;;
77978;SDS011;67169;50.268;8.694;2023-07-29T03:15:23;22.00;;;12.07;;
77978;SDS011;67169;50.268;8.694;2023-07-29T03:17:50;22.65;;;12.48;;
77978;SDS011;67169;50.268;8.694;2023-07-29T03:20:17;17.33;;;10.70;;
77978;SDS011;67169;50.268;8.694;2023-07-29T03:22:45;19.98;;;10.55;;
77978;SDS011;67169;50.268;8.694;2023-07-29T03:25:13;19.17;;;12.02;;
77978;SDS011;67169;50.268;8.694;2023-07-29T03:27:39;18.02;;;10.52;;
77978;SDS011;67169;50.268;8.694;2023-07-29T03:30:06;19.67;;;9.85;;
77978;SDS011;67169;50.268;8.694;2023-07-29T03:32:33;20.67;;;9.90;;
77978;SDS011;67169;50.268;8.694;2023-07-29T03:35:00;16.63;;;9.00;;
77978;SDS011;67169;50.268;8.694;2023-07-29T03:37:26;17.02;;;8.07;;
77978;SDS011;67169;50.268;8.694;2023-07-29T03:39:54;17.52;;;9.60;;
77978;SDS011;67169;50.268;8.694;2023-07-29T03:42:21;16.42;;;8.55;;
77978;SDS011;67169;50.268;8.694;2023-07-29T03:44:47;14.88;;;9.23;;
77978;SDS011;67169;50.268;8.694;2023-07-29T03:47:14;15.45;;;9.02;;
77978;SDS011;67169;50.268;8.694;2023-07-29T03:49:40;16.42;;;9.38;;
77978;SDS011;67169;50.268;8.694;2023-07-29T03:52:07;15.38;;;9.10;;
77978;SDS011;67169;50.268;8.694;2023-07-29T03:54:34;18.70;;;10.52;;
77978;SDS011;67169;50.268;8.694;2023-07-29T03:57:02;19.23;;;10.38;;
77978;SDS011;67169;50.268;8.694;2023-07-29T03:59:29;16.15;;;9.48;;
77978;SDS011;67169;50.268;8.694;2023-07-29T04:01:56;16.95;;;9.73;;
77978;SDS011;67169;50.268;8.694;2023-07-29T04:04:22;14.35;;;9.32;;
77978;SDS011;67169;50.268;8.694;2023-07-29T04:06:49;14.63;;;9.60;;
77978;SDS011;67169;50.268;8.694;2023-07-29T04:09:15;16.55;;;9.88;;
77978;SDS011;67169;50.268;8.694;2023-07-29T04:11:42;13.88;;;9.55;;
77978;SDS011;67169;50.268;8.694;2023-07-29T04:14:10;13.27;;;8.52;;
77978;SDS011;67169;50.268;8.694;2023-07-29T04:16:36;13.80;;;8.55;;
77978;SDS011;67169;50.268;8.694;2023-07-29T04:19:03;16.42;;;9.30;;
77978;SDS011;67169;50.268;8.694;2023-07-29T04:21:30;15.80;;;9.82;;
77978;SDS011;67169;50.268;8.694;2023-07-29T04:23:56;20.33;;;12.07;;
77978;SDS011;67169;50.268;8.694;2023-07-29T04:26:23;22.90;;;13.68;;
77978;SDS011;67169;50.268;8.694;2023-07-29T04:28:49;23.75;;;13.82;;
77978;SDS011;67169;50.268;8.694;2023-07-29T04:31:17;25.05;;;14.27;;
77978;SDS011;67169;50.268;8.694;2023-07-29T04:33:44;27.40;;;15.68;;
77978;SDS011;67169;50.268;8.694;2023-07-29T04:36:10;24.77;;;14.48;;
77978;SDS011;67169;50.268;8.694;2023-07-29T04:38:37;28.77;;;15.68;;
77978;SDS011;67169;50.268;8.694;2023-07-29T04:41:03;29.50;;;16.13;;
77978;SDS011;67169;50.268;8.694;2023-07-29T04:43:32;28.75;;;16.17;;
77978;SDS011;67169;50.268;8.694;2023-07-29T04:45:59;29.92;;;16.55;;
77978;SDS011;67169;50.268;8.694;2023-07-29T04:48:27;28.27;;;15.43;;
77978;SDS011;67169;50.268;8.694;2023-07-29T04:50:53;29.42;;;15.40;;
77978;SDS011;67169;50.268;8.694;2023-07-29T04:53:20;28.77;;;16.05;;
77978;SDS011;67169;50.268;8.694;2023-07-29T04:55:46;27.38;;;16.90;;
77978;SDS011;67169;50.268;8.694;2023-07-29T04:58:13;28.10;;;15.45;;
77978;SDS011;67169;50.268;8.694;2023-07-29T05:00:40;24.02;;;15.32;;
77978;SDS011;67169;50.268;8.694;2023-07-29T05:03:06;28.25;;;16.85;;
77978;SDS011;67169;50.268;8.694;2023-07-29T05:05:34;26.17;;;15.45;;
77978;SDS011;67169;50.268;8.694;2023-07-29T05:08:01;31.75;;;16.33;;
77978;SDS011;67169;50.268;8.694;2023-07-29T05:10:27;23.67;;;14.80;;
77978;SDS011;67169;50.268;8.694;2023-07-29T05:12:54;23.48;;;14.07;;
77978;SDS011;67169;50.268;8.694;2023-07-29T05:15:20;19.48;;;11.95;;
77978;SDS011;67169;50.268;8.694;2023-07-29T05:17:47;21.77;;;13.43;;
77978;SDS011;67169;50.268;8.694;2023-07-29T05:20:14;23.10;;;14.07;;
77978;SDS011;67169;50.268;8.694;2023-07-29T05:22:42;22.27;;;13.55;;
77978;SDS011;67169;50.268;8.694;2023-07-29T05:25:08;21.98;;;14.35;;
77978;SDS011;67169;50.268;8.694;2023-07-29T05:27:35;24.00;;;14.05;;
77978;SDS011;67169;50.268;8.694;2023-07-29T05:30:01;18.15;;;13.80;;
77978;SDS011;67169;50.268;8.694;2023-07-29T05:32:29;18.55;;;12.45;;
77978;SDS011;67169;50.268;8.694;2023-07-29T05:34:56;19.02;;;12.77;;
77978;SDS011;67169;50.268;8.694;2023-07-29T05:37:22;15.60;;;11.15;;
77978;SDS011;67169;50.268;8.694;2023-07-29T05:39:50;17.27;;;12.00;;
77978;SDS011;67169;50.268;8.694;2023-07-29T05:42:17;13.80;;;10.80;;
77978;SDS011;67169;50.268;8.694;2023-07-29T05:44:43;15.43;;;10.23;;
77978;SDS011;67169;50.268;8.694;2023-07-29T05:47:10;16.63;;;9.65;;
77978;SDS011;67169;50.268;8.694;2023-07-29T05:49:37;12.48;;;10.30;;
77978;SDS011;67169;50.268;8.694;2023-07-29T05:52:03;11.63;;;9.30;;
77978;SDS011;67169;50.268;8.694;2023-07-29T05:54:30;12.75;;;8.45;;
77978;SDS011;67169;50.268;8.694;2023-07-29T05:56:58;11.63;;;8.63;;
77978;SDS011;67169;50.268;8.694;2023-07-29T05:59:25;12.30;;;9.80;;
77978;SDS011;67169;50.268;8.694;2023-07-29T06:01:54;13.52;;;9.65;;
77978;SDS011;67169;50.268;8.694;2023-07-29T06:04:21;12.48;;;9.77;;
77978;SDS011;67169;50.268;8.694;2023-07-29T06:06:47;14.40;;;11.38;;
77978;SDS011;67169;50.268;8.694;2023-07-29T06:09:14;14.50;;;11.63;;
77978;SDS011;67169;50.268;8.694;2023-07-29T06:11:41;14.35;;;10.20;;
77978;SDS011;67169;50.268;8.694;2023-07-29T06:14:09;11.43;;;9.65;;
77978;SDS011;67169;50.268;8.694;2023-07-29T06:16:36;15.02;;;11.52;;
77978;SDS011;67169;50.268;8.694;2023-07-29T06:19:02;16.92;;;13.55;;
77978;SDS011;67169;50.268;8.694;2023-07-29T06:21:29;15.10;;;11.40;;
77978;SDS011;67169;50.268;8.694;2023-07-29T06:23:56;16.83;;;11.90;;
77978;SDS011;67169;50.268;8.694;2023-07-29T06:26:23;16.27;;;12.35;;
77978;SDS011;67169;50.268;8.694;2023-07-29T06:28:49;18.67;;;13.45;;
77978;SDS011;67169;50.268;8.694;2023-07-29T06:31:17;18.75;;;12.80;;
77978;SDS011;67169;50.268;8.694;2023-07-29T06:33:44;19.80;;;14.45;;
77978;SDS011;67169;50.268;8.694;2023-07-29T06:36:11;17.42;;;12.63;;
77978;SDS011;67169;50.268;8.694;2023-07-29T06:38:37;22.52;;;13.38;;
77978;SDS011;67169;50.268;8.694;2023-07-29T06:41:04;20.17;;;13.90;;
77978;SDS011;67169;50.268;8.694;2023-07-29T06:43:31;22.73;;;15.40;;
77978;SDS011;67169;50.268;8.694;2023-07-29T06:45:58;24.30;;;14.95;;
77978;SDS011;67169;50.268;8.694;2023-07-29T06:48:26;22.40;;;15.48;;
77978;SDS011;67169;50.268;8.694;2023-07-29T06:50:52;24.40;;;15.45;;
77978;SDS011;67169;50.268;8.694;2023-07-29T06:55:46;20.35;;;14.30;;
77978;SDS011;67169;50.268;8.694;2023-07-29T06:58:13;21.40;;;13.27;;
77978;SDS011;67169;50.268;8.694;2023-07-29T07:00:39;25.27;;;15.05;;
77978;SDS011;67169;50.268;8.694;2023-07-29T07:03:06;21.50;;;14.73;;
77978;SDS011;67169;50.268;8.694;2023-07-29T07:05:34;22.85;;;14.68;;
77978;SDS011;67169;50.268;8.694;2023-07-29T07:08:00;20.25;;;12.80;;
77978;SDS011;67169;50.268;8.694;2023-07-29T07:10:27;22.33;;;14.52;;
77978;SDS011;67169;50.268;8.694;2023-07-29T07:12:54;21.40;;;13.82;;
77978;SDS011;67169;50.268;8.694;2023-07-29T07:15:20;22.25;;;14.48;;
77978;SDS011;67169;50.268;8.694;2023-07-29T07:17:47;19.38;;;13.32;;
77978;SDS011;67169;50.268;8.694;2023-07-29T07:20:13;18.92;;;13.02;;
77978;SDS011;67169;50.268;8.694;2023-07-29T07:22:41;19.10;;;12.55;;
77978;SDS011;67169;50.268;8.694;2023-07-29T07:25:08;18.90;;;12.57;;
77978;SDS011;67169;50.268;8.694;2023-07-29T07:27:34;19.75;;;12.60;;
77978;SDS011;67169;50.268;8.694;2023-07-29T07:30:01;17.05;;;11.20;;
77978;SDS011;67169;50.268;8.694;2023-07-29T07:32:28;15.38;;;10.52;;
77978;SDS011;67169;50.268;8.694;2023-07-29T07:34:54;12.45;;;9.73;;
77978;SDS011;67169;50.268;8.694;2023-07-29T07:37:21;12.55;;;9.68;;
77978;SDS011;67169;50.268;8.694;2023-07-29T07:39:49;10.93;;;8.73;;
77978;SDS011;67169;50.268;8.694;2023-07-29T07:42:15;10.63;;;8.90;;
77978;SDS011;67169;50.268;8.694;2023-07-29T07:44:42;9.02;;;7.45;;
77978;SDS011;67169;50.268;8.694;2023-07-29T07:47:09;8.65;;;7.20;;
77978;SDS011;67169;50.268;8.694;2023-07-29T07:49:35;9.15;;;6.93;;
77978;SDS011;67169;50.268;8.694;2023-07-29T07:52:02;9.05;;;6.72;;
77978;SDS011;67169;50.268;8.694;2023-07-29T07:54:28;6.93;;;5.95;;
77978;SDS011;67169;50.268;8.694;2023-07-29T07:56:56;7.78;;;6.40;;
77978;SDS011;67169;50.268;8.694;2023-07-29T07:59:23;7.15;;;6.45;;
77978;SDS011;67169;50.268;8.694;2023-07-29T08:01:49;7.00;;;5.40;;
77978;SDS011;67169;50.268;8.694;2023-07-29T08:04:17;6.10;;;5.50;;
77978;SDS011;67169;50.268;8.694;2023-07-29T08:06:44;8.48;;;5.30;;
77978;SDS011;67169;50.268;8.694;2023-07-29T08:09:10;5.25;;;4.47;;
77978;SDS011;67169;50.268;8.694;2023-07-29T08:11:37;6.00;;;4.65;;
77978;SDS011;67169;50.268;8.694;2023-07-29T08:14:05;5.88;;;4.43;;
77978;SDS011;67169;50.268;8.694;2023-07-29T08:16:31;4.30;;;3.90;;
77978;SDS011;67169;50.268;8.694;2023-07-29T08:18:58;4.32;;;3.60;;
77978;SDS011;67169;50.268;8.694;2023-07-29T08:21:26;4.15;;;3.50;;
77978;SDS011;67169;50.268;8.694;2023-07-29T08:23:52;4.18;;;3.78;;
77978;SDS011;67169;50.268;8.694;2023-07-29T08:26:19;4.38;;;3.83;;
77978;SDS011;67169;50.268;8.694;2023-07-29T08:28:46;6.13;;;4.60;;
77978;SDS011;67169;50.268;8.694;2023-07-29T08:31:16;6.65;;;5.22;;
77978;SDS011;67169;50.268;8.694;2023-07-29T08:33:42;5.72;;;4.72;;
77978;SDS011;67169;50.268;8.694;2023-07-29T08:36:09;5.13;;;4.25;;
77978;SDS011;67169;50.268;8.694;2023-07-29T08:38:35;7.55;;;5.03;;
77978;SDS011;67169;50.268;8.694;2023-07-29T08:41:04;5.55;;;4.82;;
77978;SDS011;67169;50.268;8.694;2023-07-29T08:43:38;15.50;;;5.90;;
77978;SDS011;67169;50.268;8.694;2023-07-29T08:46:05;5.60;;;4.90;;
77978;SDS011;67169;50.268;8.694;2023-07-29T08:48:36;6.70;;;5.90;;
77978;SDS011;67169;50.268;8.694;2023-07-29T08:51:06;5.25;;;4.75;;
77978;SDS011;67169;50.268;8.694;2023-07-29T08:53:34;7.85;;;5.07;;
77978;SDS011;67169;50.268;8.694;2023-07-29T08:56:01;4.70;;;4.05;;
77978;SDS011;67169;50.268;8.694;2023-07-29T08:58:28;5.45;;;4.45;;
77978;SDS011;67169;50.268;8.694;2023-07-29T09:00:55;4.88;;;3.63;;
77978;SDS011;67169;50.268;8.694;2023-07-29T09:03:22;5.97;;;4.10;;
77978;SDS011;67169;50.268;8.694;2023-07-29T09:05:50;3.35;;;3.05;;
77978;SDS011;67169;50.268;8.694;2023-07-29T09:08:17;4.53;;;3.03;;
77978;SDS011;67169;50.268;8.694;2023-07-29T09:10:44;3.83;;;2.55;;
77978;SDS011;67169;50.268;8.694;2023-07-29T09:13:10;2.78;;;2.45;;
77978;SDS011;67169;50.268;8.694;2023-07-29T09:15:36;2.60;;;2.40;;
77978;SDS011;67169;50.268;8.694;2023-07-29T09:18:09;3.80;;;2.00;;
77978;SDS011;67169;50.268;8.694;2023-07-29T09:20:37;2.70;;;2.05;;
77978;SDS011;67169;50.268;8.694;2023-07-29T09:23:06;3.28;;;2.17;;
77978;SDS011;67169;50.268;8.694;2023-07-29T09:25:34;2.95;;;2.00;;
77978;SDS011;67169;50.268;8.694;2023-07-29T09:28:01;2.30;;;2.10;;
77978;SDS011;67169;50.268;8.694;2023-07-29T09:30:33;5.05;;;1.90;;
77978;SDS011;67169;50.268;8.694;2023-07-29T09:32:59;2.45;;;2.22;;
77978;SDS011;67169;50.268;8.694;2023-07-29T09:35:27;2.05;;;1.80;;
77978;SDS011;67169;50.268;8.694;2023-07-29T09:37:54;4.88;;;1.85;;
77978;SDS011;67169;50.268;8.694;2023-07-29T09:40:22;2.40;;;1.60;;
77978;SDS011;67169;50.268;8.694;2023-07-29T09:42:49;1.40;;;1.30;;
77978;SDS011;67169;50.268;8.694;2023-07-29T09:45:20;1.63;;;1.52;;
77978;SDS011;67169;50.268;8.694;2023-07-29T09:47:47;1.92;;;1.40;;
77978;SDS011;67169;50.268;8.694;2023-07-29T09:50:14;3.00;;;1.67;;
77978;SDS011;67169;50.268;8.694;2023-07-29T09:52:41;1.40;;;1.30;;
77978;SDS011;67169;50.268;8.694;2023-07-29T09:55:09;2.00;;;1.40;;
77978;SDS011;67169;50.268;8.694;2023-07-29T09:57:39;3.55;;;1.38;;
77978;SDS011;67169;50.268;8.694;2023-07-29T10:00:06;2.90;;;1.25;;
77978;SDS011;67169;50.268;8.694;2023-07-29T10:02:36;1.10;;;0.90;;
77978;SDS011;67169;50.268;8.694;2023-07-29T10:05:04;3.05;;;1.20;;
77978;SDS011;67169;50.268;8.694;2023-07-29T10:07:31;2.03;;;1.08;;
77978;SDS011;67169;50.268;8.694;2023-07-29T10:09:59;2.00;;;1.05;;
77978;SDS011;67169;50.268;8.694;2023-07-29T10:12:29;1.63;;;1.25;;
77978;SDS011;67169;50.268;8.694;2023-07-29T10:15:00;1.40;;;1.23;;
77978;SDS011;67169;50.268;8.694;2023-07-29T10:17:28;3.22;;;1.23;;
77978;SDS011;67169;50.268;8.694;2023-07-29T10:19:55;2.42;;;1.00;;
77978;SDS011;67169;50.268;8.694;2023-07-29T10:22:24;1.55;;;1.00;;
77978;SDS011;67169;50.268;8.694;2023-07-29T10:24:54;1.08;;;0.68;;
77978;SDS011;67169;50.268;8.694;2023-07-29T10:27:25;0.98;;;0.80;;
77978;SDS011;67169;50.268;8.694;2023-07-29T10:29:54;1.63;;;0.85;;
77978;SDS011;67169;50.268;8.694;2023-07-29T10:32:25;2.17;;;1.05;;
77978;SDS011;67169;50.268;8.694;2023-07-29T10:34:52;1.13;;;0.90;;
77978;SDS011;67169;50.268;8.694;2023-07-29T10:39:53;2.72;;;0.70;;
77978;SDS011;67169;50.268;8.694;2023-07-29T10:42:21;1.02;;;0.77;;
77978;SDS011;67169;50.268;8.694;2023-07-29T10:47:18;1.02;;;0.80;;
77978;SDS011;67169;50.268;8.694;2023-07-29T10:49:50;0.98;;;0.95;;
77978;SDS011;67169;50.268;8.694;2023-07-29T10:52:39;0.95;;;0.70;;
77978;SDS011;67169;50.268;8.694;2023-07-29T10:58:05;1.40;;;1.00;;
77978;SDS011;67169;50.268;8.694;2023-07-29T11:00:33;1.42;;;1.15;;
77978;SDS011;67169;50.268;8.694;2023-07-29T11:03:00;2.85;;;1.30;;
77978;SDS011;67169;50.268;8.694;2023-07-29T11:05:41;2.28;;;1.10;;
77978;SDS011;67169;50.268;8.694;2023-07-29T11:08:16;1.95;;;1.17;;
77978;SDS011;67169;50.268;8.694;2023-07-29T11:10:44;2.35;;;1.52;;
77978;SDS011;67169;50.268;8.694;2023-07-29T11:13:23;1.15;;;0.60;;
77978;SDS011;67169;50.268;8.694;2023-07-29T11:15:53;2.45;;;0.80;;
77978;SDS011;67169;50.268;8.694;2023-07-29T11:18:21;2.05;;;0.73;;
77978;SDS011;67169;50.268;8.694;2023-07-29T11:20:49;1.98;;;0.80;;
77978;SDS011;67169;50.268;8.694;2023-07-29T11:23:16;0.80;;;0.80;;
77978;SDS011;67169;50.268;8.694;2023-07-29T11:25:43;1.30;;;1.00;;
77978;SDS011;67169;50.268;8.694;2023-07-29T11:28:09;1.25;;;1.10;;
77978;SDS011;67169;50.268;8.694;2023-07-29T11:30:38;0.93;;;0.70;;
77978;SDS011;67169;50.268;8.694;2023-07-29T11:33:05;0.68;;;0.68;;
77978;SDS011;67169;50.268;8.694;2023-07-29T11:35:32;1.13;;;0.90;;
77978;SDS011;67169;50.268;8.694;2023-07-29T11:38:00;2.40;;;0.70;;
77978;SDS011;67169;50.268;8.694;2023-07-29T11:40:26;1.90;;;0.68;;
77978;SDS011;67169;50.268;8.694;2023-07-29T11:42:53;1.17;;;0.70;;
77978;SDS011;67169;50.268;8.694;2023-07-29T11:45:21;1.30;;;0.85;;
77978;SDS011;67169;50.268;8.694;2023-07-29T11:47:49;2.28;;;0.73;;
77978;SDS011;67169;50.268;8.694;2023-07-29T11:50:15;1.42;;;0.90;;
77978;SDS011;67169;50.268;8.694;2023-07-29T11:52:42;2.15;;;0.60;;
77978;SDS011;67169;50.268;8.694;2023-07-29T11:55:12;1.88;;;1.00;;
77978;SDS011;67169;50.268;8.694;2023-07-29T11:57:40;2.45;;;1.10;;
77978;SDS011;67169;50.268;8.694;2023-07-29T12:00:08;2.20;;;1.02;;
77978;SDS011;67169;50.268;8.694;2023-07-29T12:02:37;2.03;;;0.98;;
77978;SDS011;67169;50.268;8.694;2023-07-29T12:05:05;2.78;;;1.00;;
77978;SDS011;67169;50.268;8.694;2023-07-29T12:07:33;5.57;;;1.20;;
77978;SDS011;67169;50.268;8.694;2023-07-29T12:09:59;6.70;;;1.17;;
77978;SDS011;67169;50.268;8.694;2023-07-29T12:12:29;3.95;;;1.05;;
77978;SDS011;67169;50.268;8.694;2023-07-29T12:14:56;2.47;;;1.38;;
77978;SDS011;67169;50.268;8.694;2023-07-29T12:17:23;2.13;;;1.20;;
77978;SDS011;67169;50.268;8.694;2023-07-29T12:19:49;2.05;;;1.55;;
77978;SDS011;67169;50.268;8.694;2023-07-29T12:22:19;2.47;;;1.10;;
77978;SDS011;67169;50.268;8.694;2023-07-29T12:24:46;2.05;;;0.98;;
77978;SDS011;67169;50.268;8.694;2023-07-29T12:27:13;4.00;;;1.65;;
77978;SDS011;67169;50.268;8.694;2023-07-29T12:29:42;1.95;;;1.20;;
77978;SDS011;67169;50.268;8.694;2023-07-29T12:32:09;1.38;;;1.00;;
77978;SDS011;67169;50.268;8.694;2023-07-29T12:37:04;2.03;;;1.33;;
77978;SDS011;67169;50.268;8.694;2023-07-29T12:39:31;3.03;;;1.17;;
77978;SDS011;67169;50.268;8.694;2023-07-29T12:42:01;3.40;;;1.10;;
77978;SDS011;67169;50.268;8.694;2023-07-29T12:44:29;1.70;;;1.00;;
77978;SDS011;67169;50.268;8.694;2023-07-29T12:47:00;4.00;;;1.33;;
77978;SDS011;67169;50.268;8.694;2023-07-29T12:49:28;1.73;;;1.00;;
77978;SDS011;67169;50.268;8.694;2023-07-29T12:51:54;2.05;;;1.10;;
77978;SDS011;67169;50.268;8.694;2023-07-29T12:54:21;3.97;;;1.23;;
77978;SDS011;67169;50.268;8.694;2023-07-29T12:56:48;2.78;;;1.05;;
77978;SDS011;67169;50.268;8.694;2023-07-29T12:59:15;3.47;;;1.17;;
77978;SDS011;67169;50.268;8.694;2023-07-29T13:01:41;1.40;;;1.10;;
77978;SDS011;67169;50.268;8.694;2023-07-29T13:04:10;1.00;;;0.90;;
77978;SDS011;67169;50.268;8.694;2023-07-29T13:06:37;1.85;;;1.17;;
77978;SDS011;67169;50.268;8.694;2023-07-29T13:09:04;3.47;;;1.25;;
77978;SDS011;67169;50.268;8.694;2023-07-29T13:11:31;2.50;;;1.08;;
77978;SDS011;67169;50.268;8.694;2023-07-29T13:13:58;2.63;;;1.17;;
77978;SDS011;67169;50.268;8.694;2023-07-29T13:16:25;1.63;;;1.17;;
77978;SDS011;67169;50.268;8.694;2023-07-29T13:18:52;3.58;;;1.55;;
77978;SDS011;67169;50.268;8.694;2023-07-29T13:21:20;4.63;;;1.77;;
77978;SDS011;67169;50.268;8.694;2023-07-29T13:23:47;2.25;;;1.33;;
77978;SDS011;67169;50.268;8.694;2023-07-29T13:26:13;1.70;;;1.33;;
77978;SDS011;67169;50.268;8.694;2023-07-29T13:28:40;1.00;;;0.90;;
77978;SDS011;67169;50.268;8.694;2023-07-29T13:31:06;2.50;;;1.35;;
77978;SDS011;67169;50.268;8.694;2023-07-29T13:33:33;1.20;;;0.98;;
77978;SDS011;67169;50.268;8.694;2023-07-29T13:35:59;2.47;;;1.10;;
77978;SDS011;67169;50.268;8.694;2023-07-29T13:38:28;2.47;;;1.17;;
77978;SDS011;67169;50.268;8.694;2023-07-29T13:40:55;1.77;;;1.00;;
77978;SDS011;67169;50.268;8.694;2023-07-29T13:43:21;1.75;;;1.05;;
77978;SDS011;67169;50.268;8.694;2023-07-29T13:45:48;1.60;;;1.05;;
77978;SDS011;67169;50.268;8.694;2023-07-29T13:48:15;2.03;;;0.90;;
77978;SDS011;67169;50.268;8.694;2023-07-29T13:50:41;0.75;;;0.75;;
77978;SDS011;67169;50.268;8.694;2023-07-29T13:53:09;1.27;;;0.80;;
77978;SDS011;67169;50.268;8.694;2023-07-29T13:55:37;2.45;;;0.90;;
77978;SDS011;67169;50.268;8.694;2023-07-29T13:58:03;1.75;;;0.93;;
77978;SDS011;67169;50.268;8.694;2023-07-29T14:00:30;1.05;;;0.95;;
77978;SDS011;67169;50.268;8.694;2023-07-29T14:02:56;1.52;;;0.73;;
77978;SDS011;67169;50.268;8.694;2023-07-29T14:05:23;2.63;;;0.98;;
77978;SDS011;67169;50.268;8.694;2023-07-29T14:07:49;1.02;;;0.93;;
77978;SDS011;67169;50.268;8.694;2023-07-29T14:10:16;1.08;;;0.98;;
77978;SDS011;67169;50.268;8.694;2023-07-29T14:12:44;4.63;;;0.90;;
77978;SDS011;67169;50.268;8.694;2023-07-29T14:15:11;1.83;;;0.85;;
77978;SDS011;67169;50.268;8.694;2023-07-29T14:17:37;1.45;;;0.90;;
77978;SDS011;67169;50.268;8.694;2023-07-29T14:20:04;4.55;;;0.90;;
77978;SDS011;67169;50.268;8.694;2023-07-29T14:22:32;1.58;;;0.80;;
77978;SDS011;67169;50.268;8.694;2023-07-29T14:24:58;2.92;;;0.90;;
77978;SDS011;67169;50.268;8.694;2023-07-29T14:27:25;1.23;;;1.00;;
77978;SDS011;67169;50.268;8.694;2023-07-29T14:29:53;1.10;;;0.95;;
77978;SDS011;67169;50.268;8.694;2023-07-29T14:32:19;0.85;;;0.80;;
77978;SDS011;67169;50.268;8.694;2023-07-29T14:34:46;1.50;;;0.80;;
77978;SDS011;67169;50.268;8.694;2023-07-29T14:37:14;1.60;;;0.90;;
77978;SDS011;67169;50.268;8.694;2023-07-29T14:39:40;1.42;;;0.90;;
77978;SDS011;67169;50.268;8.694;2023-07-29T14:42:07;1.55;;;0.80;;
77978;SDS011;67169;50.268;8.694;2023-07-29T14:44:34;0.75;;;0.73;;
77978;SDS011;67169;50.268;8.694;2023-07-29T14:47:02;1.08;;;0.75;;
77978;SDS011;67169;50.268;8.694;2023-07-29T14:49:28;0.90;;;0.73;;
77978;SDS011;67169;50.268;8.694;2023-07-29T14:51:55;1.02;;;0.93;;